sensor_id;sensor_type;location;lat;lon;timestamp;pressure;altitude;pressure_sealevel;temperature;humidity
14041;BME280;7095;51.388;6.196;2023-03-16T00:01:02;54226.81;;;-145.32;100.00
14041;BME280;7095;51.388;6.196;2023-03-16T00:03:31;54187.03;;;-145.32;100.00
14041;BME280;7095;51.388;6.196;2023-03-16T00:06:00;54254.66;;;-145.32;100.00
14041;BME280;7095;51.388;6.196;2023-03-16T00:08:29;54210.91;;;-145.32;100.00
14041;BME280;7095;51.388;6.196;2023-03-16T00:10:58;54252.66;;;-145.32;100.00
14041;BME280;7095;51.388;6.196;2023-03-16T00:13:30;54210.91;;;-145.32;100.00
14041;BME280;7095;51.388;6.196;2023-03-16T00:16:00;54220.84;;;-145.32;100.00
14041;BME280;7095;51.388;6.196;2023-03-16T00:18:31;54212.88;;;-145.32;100.00
14041;BME280;7095;51.388;6.196;2023-03-16T00:21:05;54234.75;;;-145.32;100.00
14041;BME280;7095;51.388;6.196;2023-03-16T00:23:35;54246.69;;;-145.32;100.00
14041;BME280;7095;51.388;6.196;2023-03-16T00:26:05;54208.91;;;-145.32;100.00
14041;BME280;7095;51.388;6.196;2023-03-16T00:28:35;54222.84;;;-145.32;100.00
14041;BME280;7095;51.388;6.196;2023-03-16T00:31:04;54234.75;;;-145.32;100.00
14041;BME280;7095;51.388;6.196;2023-03-16T00:33:33;54246.69;;;-145.32;100.00
14041;BME280;7095;51.388;6.196;2023-03-16T00:36:05;54226.81;;;-145.32;100.00
14041;BME280;7095;51.388;6.196;2023-03-16T00:38:38;54238.75;;;-145.32;100.00
14041;BME280;7095;51.388;6.196;2023-03-16T00:41:11;54274.53;;;-145.32;100.00
14041;BME280;7095;51.388;6.196;2023-03-16T00:43:41;54238.75;;;-145.32;100.00
14041;BME280;7095;51.388;6.196;2023-03-16T00:46:13;54210.91;;;-145.32;100.00
14041;BME280;7095;51.388;6.196;2023-03-16T00:48:44;54258.63;;;-145.32;100.00
14041;BME280;7095;51.388;6.196;2023-03-16T00:51:14;54234.75;;;-145.32;100.00
14041;BME280;7095;51.388;6.196;2023-03-16T00:53:45;54252.66;;;-145.32;100.00
14041;BME280;7095;51.388;6.196;2023-03-16T00:56:15;54198.97;;;-145.32;100.00
14041;BME280;7095;51.388;6.196;2023-03-16T00:58:43;54210.91;;;-145.32;100.00
14041;BME280;7095;51.388;6.196;2023-03-16T01:01:13;54218.84;;;-145.32;100.00
14041;BME280;7095;51.388;6.196;2023-03-16T01:03:42;54224.81;;;-145.32;100.00
14041;BME280;7095;51.388;6.196;2023-03-16T01:06:12;54232.78;;;-145.32;100.00
14041;BME280;7095;51.388;6.196;2023-03-16T01:08:45;54179.09;;;-145.32;100.00
14041;BME280;7095;51.388;6.196;2023-03-16T01:11:15;54198.97;;;-145.32;100.00
14041;BME280;7095;51.388;6.196;2023-03-16T01:13:44;54206.94;;;-145.32;100.00
14041;BME280;7095;51.388;6.196;2023-03-16T01:16:14;54220.84;;;-145.32;100.00
14041;BME280;7095;51.388;6.196;2023-03-16T01:18:45;54226.81;;;-145.32;100.00
14041;BME280;7095;51.388;6.196;2023-03-16T01:21:14;54202.94;;;-145.32;100.00
14041;BME280;7095;51.388;6.196;2023-03-16T01:23:44;54196.97;;;-145.32;100.00
14041;BME280;7095;51.388;6.196;2023-03-16T01:26:12;54238.75;;;-145.32;100.00
14041;BME280;7095;51.388;6.196;2023-03-16T01:28:45;54187.03;;;-145.32;100.00
14041;BME280;7095;51.388;6.196;2023-03-16T01:31:14;54228.81;;;-145.32;100.00
14041;BME280;7095;51.388;6.196;2023-03-16T01:33:42;54183.06;;;-145.32;100.00
14041;BME280;7095;51.388;6.196;2023-03-16T01:36:17;54187.03;;;-145.32;100.00
14041;BME280;7095;51.388;6.196;2023-03-16T01:38:53;54196.97;;;-145.32;100.00
14041;BME280;7095;51.388;6.196;2023-03-16T01:41:25;54226.81;;;-145.32;100.00
14041;BME280;7095;51.388;6.196;2023-03-16T01:43:54;54187.03;;;-145.32;100.00
14041;BME280;7095;51.388;6.196;2023-03-16T01:46:26;54200.97;;;-145.32;100.00
14041;BME280;7095;51.388;6.196;2023-03-16T01:49:01;54198.97;;;-145.32;100.00
14041;BME280;7095;51.388;6.196;2023-03-16T01:51:36;54208.91;;;-145.32;100.00
14041;BME280;7095;51.388;6.196;2023-03-16T01:54:15;54218.84;;;-145.32;100.00
14041;BME280;7095;51.388;6.196;2023-03-16T01:56:51;54187.03;;;-145.32;100.00
14041;BME280;7095;51.388;6.196;2023-03-16T01:59:27;54200.97;;;-145.32;100.00
14041;BME280;7095;51.388;6.196;2023-03-16T02:01:57;54218.84;;;-145.32;100.00
14041;BME280;7095;51.388;6.196;2023-03-16T02:04:39;54234.75;;;-145.32;100.00
14041;BME280;7095;51.388;6.196;2023-03-16T02:07:11;54238.75;;;-145.32;100.00
14041;BME280;7095;51.388;6.196;2023-03-16T02:09:47;54175.13;;;-145.32;100.00
14041;BME280;7095;51.388;6.196;2023-03-16T02:12:18;54246.69;;;-145.32;100.00
14041;BME280;7095;51.388;6.196;2023-03-16T02:14:52;54189.03;;;-145.32;100.00
14041;BME280;7095;51.388;6.196;2023-03-16T02:17:22;54218.84;;;-145.32;100.00
14041;BME280;7095;51.388;6.196;2023-03-16T02:20:05;54206.94;;;-145.32;100.00
14041;BME280;7095;51.388;6.196;2023-03-16T02:22:41;54250.69;;;-145.32;100.00
14041;BME280;7095;51.388;6.196;2023-03-16T02:25:13;54218.84;;;-145.32;100.00
14041;BME280;7095;51.388;6.196;2023-03-16T02:27:50;54210.91;;;-145.32;100.00
14041;BME280;7095;51.388;6.196;2023-03-16T02:30:23;54230.78;;;-145.32;100.00
14041;BME280;7095;51.388;6.196;2023-03-16T02:33:01;54220.84;;;-145.32;100.00
14041;BME280;7095;51.388;6.196;2023-03-16T02:35:31;54268.56;;;-145.32;100.00
14041;BME280;7095;51.388;6.196;2023-03-16T02:38:00;54218.84;;;-145.32;100.00
14041;BME280;7095;51.388;6.196;2023-03-16T02:40:34;54244.72;;;-145.32;100.00
14041;BME280;7095;51.388;6.196;2023-03-16T02:43:11;54222.84;;;-145.32;100.00
14041;BME280;7095;51.388;6.196;2023-03-16T02:45:49;54226.81;;;-145.32;100.00
14041;BME280;7095;51.388;6.196;2023-03-16T02:48:22;54204.94;;;-145.32;100.00
14041;BME280;7095;51.388;6.196;2023-03-16T02:50:54;54266.59;;;-145.32;100.00
14041;BME280;7095;51.388;6.196;2023-03-16T02:53:22;54238.75;;;-145.32;100.00
14041;BME280;7095;51.388;6.196;2023-03-16T02:55:51;54226.81;;;-145.32;100.00
14041;BME280;7095;51.388;6.196;2023-03-16T02:58:20;54254.66;;;-145.32;100.00
14041;BME280;7095;51.388;6.196;2023-03-16T03:00:50;54270.56;;;-145.32;100.00
14041;BME280;7095;51.388;6.196;2023-03-16T03:03:19;54240.72;;;-145.32;100.00
14041;BME280;7095;51.388;6.196;2023-03-16T03:05:47;54280.50;;;-145.32;100.00
14041;BME280;7095;51.388;6.196;2023-03-16T03:08:16;54256.63;;;-145.32;100.00
14041;BME280;7095;51.388;6.196;2023-03-16T03:10:46;54234.75;;;-145.32;100.00
14041;BME280;7095;51.388;6.196;2023-03-16T03:13:15;54250.69;;;-145.32;100.00
14041;BME280;7095;51.388;6.196;2023-03-16T03:15:43;54258.63;;;-145.32;100.00
14041;BME280;7095;51.388;6.196;2023-03-16T03:18:13;54246.69;;;-145.32;100.00
14041;BME280;7095;51.388;6.196;2023-03-16T03:20:42;54234.75;;;-145.32;100.00
14041;BME280;7095;51.388;6.196;2023-03-16T03:23:10;54230.78;;;-145.32;100.00
14041;BME280;7095;51.388;6.196;2023-03-16T03:25:40;54256.63;;;-145.32;100.00
14041;BME280;7095;51.388;6.196;2023-03-16T03:28:09;54244.72;;;-145.32;100.00
14041;BME280;7095;51.388;6.196;2023-03-16T03:30:37;54222.84;;;-145.32;100.00
14041;BME280;7095;51.388;6.196;2023-03-16T03:33:06;54242.72;;;-145.32;100.00
14041;BME280;7095;51.388;6.196;2023-03-16T03:35:36;54248.69;;;-145.32;100.00
14041;BME280;7095;51.388;6.196;2023-03-16T03:38:04;54264.59;;;-145.32;100.00
14041;BME280;7095;51.388;6.196;2023-03-16T03:40:34;54258.63;;;-145.32;100.00
14041;BME280;7095;51.388;6.196;2023-03-16T03:43:03;54274.53;;;-145.32;100.00
14041;BME280;7095;51.388;6.196;2023-03-16T03:45:36;54218.84;;;-145.32;100.00
14041;BME280;7095;51.388;6.196;2023-03-16T03:48:05;54268.56;;;-145.32;100.00
14041;BME280;7095;51.388;6.196;2023-03-16T03:50:35;54268.56;;;-145.32;100.00
14041;BME280;7095;51.388;6.196;2023-03-16T03:53:23;54296.41;;;-145.32;100.00
14041;BME280;7095;51.388;6.196;2023-03-16T03:56:11;54268.56;;;-145.32;100.00
14041;BME280;7095;51.388;6.196;2023-03-16T03:58:40;54270.56;;;-145.32;100.00
14041;BME280;7095;51.388;6.196;2023-03-16T04:01:10;54264.59;;;-145.32;100.00
14041;BME280;7095;51.388;6.196;2023-03-16T04:03:39;54278.50;;;-145.32;100.00
14041;BME280;7095;51.388;6.196;2023-03-16T04:06:15;54234.75;;;-145.32;100.00
14041;BME280;7095;51.388;6.196;2023-03-16T04:08:43;54254.66;;;-145.32;100.00
14041;BME280;7095;51.388;6.196;2023-03-16T04:11:17;54222.84;;;-145.32;100.00
14041;BME280;7095;51.388;6.196;2023-03-16T04:13:45;54258.63;;;-145.32;100.00
14041;BME280;7095;51.388;6.196;2023-03-16T04:16:14;54250.69;;;-145.32;100.00
14041;BME280;7095;51.388;6.196;2023-03-16T04:18:45;54290.44;;;-145.32;100.00
14041;BME280;7095;51.388;6.196;2023-03-16T04:21:16;54298.41;;;-145.32;100.00
14041;BME280;7095;51.388;6.196;2023-03-16T04:23:47;54246.69;;;-145.32;100.00
14041;BME280;7095;51.388;6.196;2023-03-16T04:26:16;54278.50;;;-145.32;100.00
14041;BME280;7095;51.388;6.196;2023-03-16T04:28:47;54270.56;;;-145.32;100.00
14041;BME280;7095;51.388;6.196;2023-03-16T04:31:18;54258.63;;;-145.32;100.00
14041;BME280;7095;51.388;6.196;2023-03-16T04:33:47;54266.59;;;-145.32;100.00
14041;BME280;7095;51.388;6.196;2023-03-16T04:36:16;54242.72;;;-145.32;100.00
14041;BME280;7095;51.388;6.196;2023-03-16T04:38:45;54250.69;;;-145.32;100.00
14041;BME280;7095;51.388;6.196;2023-03-16T04:41:13;54262.59;;;-145.32;100.00
14041;BME280;7095;51.388;6.196;2023-03-16T04:43:50;54252.66;;;-145.32;100.00
14041;BME280;7095;51.388;6.196;2023-03-16T04:46:22;54244.72;;;-145.32;100.00
14041;BME280;7095;51.388;6.196;2023-03-16T04:48:50;54290.44;;;-145.32;100.00
14041;BME280;7095;51.388;6.196;2023-03-16T04:51:20;54296.41;;;-145.32;100.00
14041;BME280;7095;51.388;6.196;2023-03-16T04:54:03;54286.47;;;-145.32;100.00
14041;BME280;7095;51.388;6.196;2023-03-16T04:56:34;54264.59;;;-145.32;100.00
14041;BME280;7095;51.388;6.196;2023-03-16T04:59:08;54272.53;;;-145.32;100.00
14041;BME280;7095;51.388;6.196;2023-03-16T05:01:53;54278.50;;;-145.32;100.00
14041;BME280;7095;51.388;6.196;2023-03-16T05:04:21;54260.63;;;-145.32;100.00
14041;BME280;7095;51.388;6.196;2023-03-16T05:06:52;54250.69;;;-145.32;100.00
14041;BME280;7095;51.388;6.196;2023-03-16T05:09:25;54294.41;;;-145.32;100.00
14041;BME280;7095;51.388;6.196;2023-03-16T05:11:54;54264.59;;;-145.32;100.00
14041;BME280;7095;51.388;6.196;2023-03-16T05:14:23;54270.56;;;-145.32;100.00
14041;BME280;7095;51.388;6.196;2023-03-16T05:17:03;54262.59;;;-145.32;100.00
14041;BME280;7095;51.388;6.196;2023-03-16T05:19:32;54296.41;;;-145.32;100.00
14041;BME280;7095;51.388;6.196;2023-03-16T05:22:02;54272.53;;;-145.32;100.00
14041;BME280;7095;51.388;6.196;2023-03-16T05:24:33;54266.59;;;-145.32;100.00
14041;BME280;7095;51.388;6.196;2023-03-16T05:27:03;54274.53;;;-145.32;100.00
14041;BME280;7095;51.388;6.196;2023-03-16T05:29:32;54302.38;;;-145.32;100.00
14041;BME280;7095;51.388;6.196;2023-03-16T05:32:01;54258.63;;;-145.32;100.00
14041;BME280;7095;51.388;6.196;2023-03-16T05:34:30;54270.56;;;-145.32;100.00
14041;BME280;7095;51.388;6.196;2023-03-16T05:36:59;54276.53;;;-145.32;100.00
14041;BME280;7095;51.388;6.196;2023-03-16T05:39:29;54262.59;;;-145.32;100.00
14041;BME280;7095;51.388;6.196;2023-03-16T05:41:58;54292.44;;;-145.32;100.00
14041;BME280;7095;51.388;6.196;2023-03-16T05:44:33;54294.41;;;-145.32;100.00
14041;BME280;7095;51.388;6.196;2023-03-16T05:47:10;54290.44;;;-145.32;100.00
14041;BME280;7095;51.388;6.196;2023-03-16T05:49:43;54298.41;;;-145.32;100.00
14041;BME280;7095;51.388;6.196;2023-03-16T05:52:21;54312.31;;;-145.32;100.00
14041;BME280;7095;51.388;6.196;2023-03-16T05:54:54;54296.41;;;-145.32;100.00
14041;BME280;7095;51.388;6.196;2023-03-16T05:57:22;54298.41;;;-145.32;100.00
14041;BME280;7095;51.388;6.196;2023-03-16T05:59:51;54316.28;;;-145.32;100.00
14041;BME280;7095;51.388;6.196;2023-03-16T06:02:21;54278.50;;;-145.32;100.00
14041;BME280;7095;51.388;6.196;2023-03-16T06:04:52;54326.25;;;-145.32;100.00
14041;BME280;7095;51.388;6.196;2023-03-16T06:07:20;54322.25;;;-145.32;100.00
14041;BME280;7095;51.388;6.196;2023-03-16T06:09:54;54322.25;;;-145.32;100.00
14041;BME280;7095;51.388;6.196;2023-03-16T06:12:23;54280.50;;;-145.32;100.00
14041;BME280;7095;51.388;6.196;2023-03-16T06:14:51;54282.50;;;-145.32;100.00
14041;BME280;7095;51.388;6.196;2023-03-16T06:17:19;54334.19;;;-145.32;100.00
14041;BME280;7095;51.388;6.196;2023-03-16T06:19:48;54342.16;;;-145.32;100.00
14041;BME280;7095;51.388;6.196;2023-03-16T06:22:18;54304.38;;;-145.32;100.00
14041;BME280;7095;51.388;6.196;2023-03-16T06:24:46;54306.34;;;-145.32;100.00
14041;BME280;7095;51.388;6.196;2023-03-16T06:27:16;54306.34;;;-145.32;100.00
14041;BME280;7095;51.388;6.196;2023-03-16T06:30:04;54260.63;;;-145.32;100.00
14041;BME280;7095;51.388;6.196;2023-03-16T06:32:33;54278.50;;;-145.32;100.00
14041;BME280;7095;51.388;6.196;2023-03-16T06:35:02;54278.50;;;-145.32;100.00
14041;BME280;7095;51.388;6.196;2023-03-16T06:37:32;54300.38;;;-145.32;100.00
14041;BME280;7095;51.388;6.196;2023-03-16T06:40:09;54286.47;;;-145.32;100.00
14041;BME280;7095;51.388;6.196;2023-03-16T06:42:39;54256.63;;;-145.32;100.00
14041;BME280;7095;51.388;6.196;2023-03-16T06:45:10;54270.56;;;-145.32;100.00
14041;BME280;7095;51.388;6.196;2023-03-16T06:47:39;54298.41;;;-145.32;100.00
14041;BME280;7095;51.388;6.196;2023-03-16T06:50:09;54310.34;;;-145.32;100.00
14041;BME280;7095;51.388;6.196;2023-03-16T06:52:39;54266.59;;;-145.32;100.00
14041;BME280;7095;51.388;6.196;2023-03-16T06:55:08;54272.53;;;-145.32;100.00
14041;BME280;7095;51.388;6.196;2023-03-16T06:57:43;54266.59;;;-145.32;100.00
14041;BME280;7095;51.388;6.196;2023-03-16T07:00:13;54258.63;;;-145.32;100.00
14041;BME280;7095;51.388;6.196;2023-03-16T07:02:42;54258.63;;;-145.32;100.00
14041;BME280;7095;51.388;6.196;2023-03-16T07:05:12;54278.50;;;-145.32;100.00
14041;BME280;7095;51.388;6.196;2023-03-16T07:07:41;54252.66;;;-145.32;100.00
14041;BME280;7095;51.388;6.196;2023-03-16T07:10:12;54266.59;;;-145.32;100.00
14041;BME280;7095;51.388;6.196;2023-03-16T07:12:43;54244.72;;;-145.32;100.00
14041;BME280;7095;51.388;6.196;2023-03-16T07:15:12;54226.81;;;-145.32;100.00
14041;BME280;7095;51.388;6.196;2023-03-16T07:17:41;54222.84;;;-145.32;100.00
14041;BME280;7095;51.388;6.196;2023-03-16T07:20:11;54258.63;;;-145.32;100.00
14041;BME280;7095;51.388;6.196;2023-03-16T07:22:41;54296.41;;;-145.32;100.00
14041;BME280;7095;51.388;6.196;2023-03-16T07:25:11;54222.84;;;-145.32;100.00
14041;BME280;7095;51.388;6.196;2023-03-16T07:27:46;54230.78;;;-145.32;100.00
14041;BME280;7095;51.388;6.196;2023-03-16T07:30:20;54212.88;;;-145.32;100.00
14041;BME280;7095;51.388;6.196;2023-03-16T07:32:52;54314.31;;;-145.32;100.00
14041;BME280;7095;51.388;6.196;2023-03-16T07:35:22;54254.66;;;-145.32;100.00
14041;BME280;7095;51.388;6.196;2023-03-16T07:37:50;54226.81;;;-145.32;100.00
14041;BME280;7095;51.388;6.196;2023-03-16T07:40:20;54218.84;;;-145.32;100.00
14041;BME280;7095;51.388;6.196;2023-03-16T07:42:51;54274.53;;;-145.32;100.00
14041;BME280;7095;51.388;6.196;2023-03-16T07:45:27;54238.75;;;-145.32;100.00
14041;BME280;7095;51.388;6.196;2023-03-16T07:47:57;54226.81;;;-145.32;100.00
14041;BME280;7095;51.388;6.196;2023-03-16T07:50:39;54258.63;;;-145.32;100.00
14041;BME280;7095;51.388;6.196;2023-03-16T07:53:08;54246.69;;;-145.32;100.00
14041;BME280;7095;51.388;6.196;2023-03-16T07:55:38;54234.75;;;-145.32;100.00
14041;BME280;7095;51.388;6.196;2023-03-16T07:58:10;54216.88;;;-145.32;100.00
14041;BME280;7095;51.388;6.196;2023-03-16T08:00:41;54266.59;;;-145.32;100.00
14041;BME280;7095;51.388;6.196;2023-03-16T08:03:09;54252.66;;;-145.32;100.00
14041;BME280;7095;51.388;6.196;2023-03-16T08:05:38;54274.53;;;-145.32;100.00
14041;BME280;7095;51.388;6.196;2023-03-16T08:08:12;54302.38;;;-145.32;100.00
14041;BME280;7095;51.388;6.196;2023-03-16T08:10:42;54242.72;;;-145.32;100.00
14041;BME280;7095;51.388;6.196;2023-03-16T08:13:15;54276.53;;;-145.32;100.00
14041;BME280;7095;51.388;6.196;2023-03-16T08:15:46;54246.69;;;-145.32;100.00
14041;BME280;7095;51.388;6.196;2023-03-16T08:18:23;54274.53;;;-145.32;100.00
14041;BME280;7095;51.388;6.196;2023-03-16T08:20:52;54274.53;;;-145.32;100.00
14041;BME280;7095;51.388;6.196;2023-03-16T08:23:21;54266.59;;;-145.32;100.00
14041;BME280;7095;51.388;6.196;2023-03-16T08:25:51;54282.50;;;-145.32;100.00
14041;BME280;7095;51.388;6.196;2023-03-16T08:28:23;54290.44;;;-145.32;100.00
14041;BME280;7095;51.388;6.196;2023-03-16T08:30:54;54330.22;;;-145.32;100.00
14041;BME280;7095;51.388;6.196;2023-03-16T08:33:48;54308.34;;;-145.32;100.00
14041;BME280;7095;51.388;6.196;2023-03-16T08:36:21;54326.25;;;-145.32;100.00
14041;BME280;7095;51.388;6.196;2023-03-16T08:38:52;54326.25;;;-145.32;100.00
14041;BME280;7095;51.388;6.196;2023-03-16T08:41:39;54322.25;;;-145.32;100.00
14041;BME280;7095;51.388;6.196;2023-03-16T08:44:19;54330.22;;;-145.32;100.00
14041;BME280;7095;51.388;6.196;2023-03-16T08:46:49;54342.16;;;-145.32;100.00
14041;BME280;7095;51.388;6.196;2023-03-16T08:49:20;54342.16;;;-145.32;100.00
14041;BME280;7095;51.388;6.196;2023-03-16T08:51:58;54316.28;;;-145.32;100.00
14041;BME280;7095;51.388;6.196;2023-03-16T08:54:27;54405.78;;;-145.32;100.00
14041;BME280;7095;51.388;6.196;2023-03-16T08:56:56;54411.75;;;-145.32;100.00
14041;BME280;7095;51.388;6.196;2023-03-16T08:59:26;54366.00;;;-145.32;100.00
14041;BME280;7095;51.388;6.196;2023-03-16T09:01:56;54401.81;;;-145.32;100.00
14041;BME280;7095;51.388;6.196;2023-03-16T09:04:25;54360.03;;;-145.32;100.00
14041;BME280;7095;51.388;6.196;2023-03-16T09:06:54;54330.22;;;-145.32;100.00
14041;BME280;7095;51.388;6.196;2023-03-16T09:09:35;54362.03;;;-145.32;100.00
14041;BME280;7095;51.388;6.196;2023-03-16T09:12:03;54350.09;;;-145.32;100.00
14041;BME280;7095;51.388;6.196;2023-03-16T09:14:34;54350.09;;;-145.32;100.00
14041;BME280;7095;51.388;6.196;2023-03-16T09:17:04;54300.38;;;-145.32;100.00
14041;BME280;7095;51.388;6.196;2023-03-16T09:19:33;54310.34;;;-145.32;100.00
14041;BME280;7095;51.388;6.196;2023-03-16T09:22:20;54306.34;;;-145.32;100.00
14041;BME280;7095;51.388;6.196;2023-03-16T09:24:50;54290.44;;;-145.32;100.00
14041;BME280;7095;51.388;6.196;2023-03-16T09:27:19;54282.50;;;-145.32;100.00
14041;BME280;7095;51.388;6.196;2023-03-16T09:29:50;54262.59;;;-145.32;100.00
14041;BME280;7095;51.388;6.196;2023-03-16T09:32:22;54246.69;;;-145.32;100.00
14041;BME280;7095;51.388;6.196;2023-03-16T09:34:50;54210.91;;;-145.32;100.00
14041;BME280;7095;51.388;6.196;2023-03-16T09:37:19;54195.00;;;-145.32;100.00
14041;BME280;7095;51.388;6.196;2023-03-16T09:39:48;54202.94;;;-145.32;100.00
14041;BME280;7095;51.388;6.196;2023-03-16T09:42:22;54159.19;;;-145.32;100.00
14041;BME280;7095;51.388;6.196;2023-03-16T09:45:03;54151.25;;;-145.32;100.00
14041;BME280;7095;51.388;6.196;2023-03-16T09:47:34;54163.19;;;-145.32;100.00
14041;BME280;7095;51.388;6.196;2023-03-16T09:50:07;54139.31;;;-145.32;100.00
14041;BME280;7095;51.388;6.196;2023-03-16T09:52:42;54137.34;;;-145.32;100.00
14041;BME280;7095;51.388;6.196;2023-03-16T09:55:25;54073.69;;;-145.32;100.00
14041;BME280;7095;51.388;6.196;2023-03-16T09:57:56;54135.34;;;-145.32;100.00
14041;BME280;7095;51.388;6.196;2023-03-16T10:00:30;54099.56;;;-145.32;100.00
14041;BME280;7095;51.388;6.196;2023-03-16T10:03:15;54079.66;;;-145.32;100.00
14041;BME280;7095;51.388;6.196;2023-03-16T10:05:47;54055.81;;;-145.32;100.00
14041;BME280;7095;51.388;6.196;2023-03-16T10:08:20;54033.94;;;-145.32;100.00
14041;BME280;7095;51.388;6.196;2023-03-16T10:11:04;54016.03;;;-145.32;100.00
14041;BME280;7095;51.388;6.196;2023-03-16T10:13:43;53964.34;;;-145.32;100.00
14041;BME280;7095;51.388;6.196;2023-03-16T10:16:19;53924.56;;;-145.32;100.00
14041;BME280;7095;51.388;6.196;2023-03-16T10:18:51;53954.41;;;-145.32;100.00
14041;BME280;7095;51.388;6.196;2023-03-16T10:21:22;53940.47;;;-145.32;100.00
14041;BME280;7095;51.388;6.196;2023-03-16T10:23:51;53940.47;;;-145.32;100.00
14041;BME280;7095;51.388;6.196;2023-03-16T10:26:25;53920.59;;;-145.32;100.00
14041;BME280;7095;51.388;6.196;2023-03-16T10:28:55;53912.66;;;-145.32;100.00
14041;BME280;7095;51.388;6.196;2023-03-16T10:31:28;53894.75;;;-145.32;100.00
14041;BME280;7095;51.388;6.196;2023-03-16T10:34:01;53898.72;;;-145.32;100.00
14041;BME280;7095;51.388;6.196;2023-03-16T10:36:33;53892.75;;;-145.32;100.00
14041;BME280;7095;51.388;6.196;2023-03-16T10:39:04;53856.97;;;-145.32;100.00
14041;BME280;7095;51.388;6.196;2023-03-16T10:41:35;53872.88;;;-145.32;100.00
14041;BME280;7095;51.388;6.196;2023-03-16T10:44:09;53823.16;;;-145.32;100.00
14041;BME280;7095;51.388;6.196;2023-03-16T10:46:41;53849.03;;;-145.32;100.00
14041;BME280;7095;51.388;6.196;2023-03-16T10:49:22;53823.16;;;-145.32;100.00
14041;BME280;7095;51.388;6.196;2023-03-16T10:51:54;53856.97;;;-145.32;100.00
14041;BME280;7095;51.388;6.196;2023-03-16T10:54:27;53856.97;;;-145.32;100.00
14041;BME280;7095;51.388;6.196;2023-03-16T10:56:58;53809.25;;;-145.32;100.00
14041;BME280;7095;51.388;6.196;2023-03-16T10:59:29;53821.19;;;-145.32;100.00
14041;BME280;7095;51.388;6.196;2023-03-16T11:02:14;53803.28;;;-145.32;100.00
14041;BME280;7095;51.388;6.196;2023-03-16T11:04:43;53837.09;;;-145.32;100.00
14041;BME280;7095;51.388;6.196;2023-03-16T11:07:15;53793.34;;;-145.32;100.00
14041;BME280;7095;51.388;6.196;2023-03-16T11:09:44;53829.13;;;-145.32;100.00
14041;BME280;7095;51.388;6.196;2023-03-16T11:12:20;53809.25;;;-145.32;100.00
14041;BME280;7095;51.388;6.196;2023-03-16T11:14:50;53785.41;;;-145.32;100.00
14041;BME280;7095;51.388;6.196;2023-03-16T11:17:24;53781.41;;;-145.32;100.00
14041;BME280;7095;51.388;6.196;2023-03-16T11:19:57;53769.50;;;-145.32;100.00
14041;BME280;7095;51.388;6.196;2023-03-16T11:22:27;53793.34;;;-145.32;100.00
14041;BME280;7095;51.388;6.196;2023-03-16T11:25:03;53773.47;;;-145.32;100.00
14041;BME280;7095;51.388;6.196;2023-03-16T11:27:41;53765.50;;;-145.32;100.00
14041;BME280;7095;51.388;6.196;2023-03-16T11:30:15;53745.63;;;-145.32;96.90
14041;BME280;7095;51.388;6.196;2023-03-16T11:32:49;53745.63;;;-145.32;95.32
14041;BME280;7095;51.388;6.196;2023-03-16T11:35:22;53725.75;;;-145.32;96.14
14041;BME280;7095;51.388;6.196;2023-03-16T11:38:06;53713.81;;;-145.32;94.43
14041;BME280;7095;51.388;6.196;2023-03-16T11:40:44;53741.66;;;-145.32;93.80
14041;BME280;7095;51.388;6.196;2023-03-16T11:43:30;53703.88;;;-145.32;92.58
14041;BME280;7095;51.388;6.196;2023-03-16T11:46:09;53713.81;;;-145.32;90.77
14041;BME280;7095;51.388;6.196;2023-03-16T11:48:47;53713.81;;;-145.32;94.49
14041;BME280;7095;51.388;6.196;2023-03-16T11:51:30;53693.94;;;-145.32;86.17
14041;BME280;7095;51.388;6.196;2023-03-16T11:54:07;53684.00;;;-145.32;90.22
14041;BME280;7095;51.388;6.196;2023-03-16T11:56:42;53713.81;;;-145.32;88.30
14041;BME280;7095;51.388;6.196;2023-03-16T11:59:20;53693.94;;;-145.32;90.56
14041;BME280;7095;51.388;6.196;2023-03-16T12:02:09;53693.94;;;-145.32;88.58
14041;BME280;7095;51.388;6.196;2023-03-16T12:04:57;53687.97;;;-145.32;87.61
14041;BME280;7095;51.388;6.196;2023-03-16T12:07:47;53662.13;;;-145.32;85.98
14041;BME280;7095;51.388;6.196;2023-03-16T12:10:23;53689.97;;;-145.32;88.51
14041;BME280;7095;51.388;6.196;2023-03-16T12:13:01;53691.94;;;-145.32;85.91
14041;BME280;7095;51.388;6.196;2023-03-16T12:15:34;53668.09;;;-145.32;85.05
14041;BME280;7095;51.388;6.196;2023-03-16T12:18:14;53676.03;;;-145.32;86.33
14041;BME280;7095;51.388;6.196;2023-03-16T12:20:52;53674.06;;;-145.32;83.91
14041;BME280;7095;51.388;6.196;2023-03-16T12:23:27;53676.03;;;-145.32;88.50
14041;BME280;7095;51.388;6.196;2023-03-16T12:25:57;53701.88;;;-145.32;89.25
14041;BME280;7095;51.388;6.196;2023-03-16T12:28:28;53680.03;;;-145.32;89.39
14041;BME280;7095;51.388;6.196;2023-03-16T12:31:04;53668.09;;;-145.32;88.15
14041;BME280;7095;51.388;6.196;2023-03-16T12:33:47;53699.91;;;-145.32;86.21
14041;BME280;7095;51.388;6.196;2023-03-16T12:36:45;53687.97;;;-145.32;84.01
14041;BME280;7095;51.388;6.196;2023-03-16T12:39:23;53656.16;;;-145.32;86.89
14041;BME280;7095;51.388;6.196;2023-03-16T12:42:05;53668.09;;;-145.32;81.93
14041;BME280;7095;51.388;6.196;2023-03-16T12:44:45;53650.19;;;-145.32;80.70
14041;BME280;7095;51.388;6.196;2023-03-16T12:47:21;53626.34;;;-145.32;83.14
14041;BME280;7095;51.388;6.196;2023-03-16T12:50:02;53650.19;;;-145.32;82.02
14041;BME280;7095;51.388;6.196;2023-03-16T12:52:40;53620.38;;;-145.32;81.60
14041;BME280;7095;51.388;6.196;2023-03-16T12:55:12;53610.44;;;-145.32;80.45
14041;BME280;7095;51.388;6.196;2023-03-16T12:57:43;53634.28;;;-145.32;79.75
14041;BME280;7095;51.388;6.196;2023-03-16T13:00:14;53586.56;;;-145.32;80.01
14041;BME280;7095;51.388;6.196;2023-03-16T13:02:47;53598.50;;;-145.32;78.91
14041;BME280;7095;51.388;6.196;2023-03-16T13:05:26;53566.69;;;-145.32;77.57
14041;BME280;7095;51.388;6.196;2023-03-16T13:08:06;53550.78;;;-145.32;70.06